sensor_id;sensor_type;location;lat;lon;timestamp;P1;durP1;ratioP1;P2;durP2;ratioP2
26335;SDS011;14047;50.936;4.654;2023-04-24T00:00:55;18.80;;;8.70;;
26335;SDS011;14047;50.936;4.654;2023-04-24T00:03:25;28.02;;;12.00;;
26335;SDS011;14047;50.936;4.654;2023-04-24T00:05:56;28.27;;;13.38;;
26335;SDS011;14047;50.936;4.654;2023-04-24T00:08:22;29.50;;;13.15;;
26335;SDS011;14047;50.936;4.654;2023-04-24T00:10:49;21.23;;;13.85;;
26335;SDS011;14047;50.936;4.654;2023-04-24T00:13:14;34.90;;;13.27;;
26335;SDS011;14047;50.936;4.654;2023-04-24T00:15:40;28.25;;;13.20;;
26335;SDS011;14047;50.936;4.654;2023-04-24T00:18:06;24.42;;;13.38;;
26335;SDS011;14047;50.936;4.654;2023-04-24T00:20:32;21.70;;;12.20;;
26335;SDS011;14047;50.936;4.654;2023-04-24T00:23:00;26.45;;;13.93;;
26335;SDS011;14047;50.936;4.654;2023-04-24T00:25:26;30.88;;;14.73;;
26335;SDS011;14047;50.936;4.654;2023-04-24T00:27:52;25.60;;;14.32;;
26335;SDS011;14047;50.936;4.654;2023-04-24T00:30:18;24.58;;;11.18;;
26335;SDS011;14047;50.936;4.654;2023-04-24T00:32:44;30.50;;;15.55;;
26335;SDS011;14047;50.936;4.654;2023-04-24T00:35:10;28.90;;;13.98;;
26335;SDS011;14047;50.936;4.654;2023-04-24T00:37:36;31.55;;;14.27;;
26335;SDS011;14047;50.936;4.654;2023-04-24T00:40:02;24.30;;;12.45;;
26335;SDS011;14047;50.936;4.654;2023-04-24T00:42:28;28.25;;;13.82;;
26335;SDS011;14047;50.936;4.654;2023-04-24T00:44:55;23.42;;;13.00;;
26335;SDS011;14047;50.936;4.654;2023-04-24T00:47:22;22.23;;;12.90;;
26335;SDS011;14047;50.936;4.654;2023-04-24T00:49:48;23.30;;;13.25;;
26335;SDS011;14047;50.936;4.654;2023-04-24T00:52:14;28.30;;;13.30;;
26335;SDS011;14047;50.936;4.654;2023-04-24T00:54:45;29.05;;;12.52;;
26335;SDS011;14047;50.936;4.654;2023-04-24T00:57:12;29.30;;;14.43;;
26335;SDS011;14047;50.936;4.654;2023-04-24T00:59:41;27.42;;;12.43;;
26335;SDS011;14047;50.936;4.654;2023-04-24T01:02:08;29.27;;;12.57;;
26335;SDS011;14047;50.936;4.654;2023-04-24T01:04:36;22.40;;;11.70;;
26335;SDS011;14047;50.936;4.654;2023-04-24T01:07:03;22.23;;;12.63;;
26335;SDS011;14047;50.936;4.654;2023-04-24T01:09:35;23.05;;;13.35;;
26335;SDS011;14047;50.936;4.654;2023-04-24T01:12:02;29.63;;;13.75;;
26335;SDS011;14047;50.936;4.654;2023-04-24T01:14:28;23.85;;;13.50;;
26335;SDS011;14047;50.936;4.654;2023-04-24T01:16:55;23.40;;;12.98;;
26335;SDS011;14047;50.936;4.654;2023-04-24T01:19:23;28.38;;;14.68;;
26335;SDS011;14047;50.936;4.654;2023-04-24T01:21:50;30.05;;;14.52;;
26335;SDS011;14047;50.936;4.654;2023-04-24T01:24:19;24.15;;;13.15;;
26335;SDS011;14047;50.936;4.654;2023-04-24T01:26:45;23.83;;;14.63;;
26335;SDS011;14047;50.936;4.654;2023-04-24T01:29:12;23.90;;;12.75;;
26335;SDS011;14047;50.936;4.654;2023-04-24T01:31:38;19.88;;;11.75;;
26335;SDS011;14047;50.936;4.654;2023-04-24T01:34:05;26.42;;;13.65;;
26335;SDS011;14047;50.936;4.654;2023-04-24T01:36:32;22.85;;;13.10;;
26335;SDS011;14047;50.936;4.654;2023-04-24T01:39:00;22.50;;;13.55;;
26335;SDS011;14047;50.936;4.654;2023-04-24T01:41:26;27.30;;;13.30;;
26335;SDS011;14047;50.936;4.654;2023-04-24T01:43:52;25.95;;;13.63;;
26335;SDS011;14047;50.936;4.654;2023-04-24T01:46:20;24.27;;;10.27;;
26335;SDS011;14047;50.936;4.654;2023-04-24T01:48:46;25.65;;;12.98;;
26335;SDS011;14047;50.936;4.654;2023-04-24T01:51:12;21.33;;;11.60;;
26335;SDS011;14047;50.936;4.654;2023-04-24T01:53:38;17.48;;;11.05;;
26335;SDS011;14047;50.936;4.654;2023-04-24T01:56:04;23.15;;;11.05;;
26335;SDS011;14047;50.936;4.654;2023-04-24T01:58:30;20.90;;;9.20;;
26335;SDS011;14047;50.936;4.654;2023-04-24T02:00:57;19.25;;;10.05;;
26335;SDS011;14047;50.936;4.654;2023-04-24T02:03:24;17.63;;;10.05;;
26335;SDS011;14047;50.936;4.654;2023-04-24T02:05:51;18.17;;;9.98;;
26335;SDS011;14047;50.936;4.654;2023-04-24T02:08:17;19.75;;;9.95;;
26335;SDS011;14047;50.936;4.654;2023-04-24T02:10:43;15.70;;;9.85;;
26335;SDS011;14047;50.936;4.654;2023-04-24T02:13:09;21.45;;;10.15;;
26335;SDS011;14047;50.936;4.654;2023-04-24T02:15:35;20.63;;;10.43;;
26335;SDS011;14047;50.936;4.654;2023-04-24T02:18:02;17.55;;;9.63;;
26335;SDS011;14047;50.936;4.654;2023-04-24T02:20:31;14.50;;;9.68;;
26335;SDS011;14047;50.936;4.654;2023-04-24T02:22:59;16.50;;;10.32;;
26335;SDS011;14047;50.936;4.654;2023-04-24T02:25:25;19.50;;;10.07;;
26335;SDS011;14047;50.936;4.654;2023-04-24T02:27:54;21.15;;;9.65;;
26335;SDS011;14047;50.936;4.654;2023-04-24T02:30:20;18.20;;;11.20;;
26335;SDS011;14047;50.936;4.654;2023-04-24T02:32:46;16.88;;;10.90;;
26335;SDS011;14047;50.936;4.654;2023-04-24T02:35:12;20.58;;;11.82;;
26335;SDS011;14047;50.936;4.654;2023-04-24T02:37:38;19.20;;;12.05;;
26335;SDS011;14047;50.936;4.654;2023-04-24T02:40:04;17.60;;;12.27;;
26335;SDS011;14047;50.936;4.654;2023-04-24T02:42:31;24.20;;;13.10;;
26335;SDS011;14047;50.936;4.654;2023-04-24T02:44:56;23.58;;;12.45;;
26335;SDS011;14047;50.936;4.654;2023-04-24T02:47:22;20.92;;;12.48;;
26335;SDS011;14047;50.936;4.654;2023-04-24T02:49:48;22.02;;;14.02;;
26335;SDS011;14047;50.936;4.654;2023-04-24T02:52:14;28.65;;;13.85;;
26335;SDS011;14047;50.936;4.654;2023-04-24T02:54:40;20.20;;;12.95;;
26335;SDS011;14047;50.936;4.654;2023-04-24T02:57:06;23.42;;;12.07;;
26335;SDS011;14047;50.936;4.654;2023-04-24T02:59:32;24.08;;;11.88;;
26335;SDS011;14047;50.936;4.654;2023-04-24T03:01:59;21.20;;;11.68;;
26335;SDS011;14047;50.936;4.654;2023-04-24T03:04:25;21.50;;;12.73;;
26335;SDS011;14047;50.936;4.654;2023-04-24T03:06:51;20.88;;;13.10;;
26335;SDS011;14047;50.936;4.654;2023-04-24T03:09:20;19.08;;;10.73;;
26335;SDS011;14047;50.936;4.654;2023-04-24T03:11:46;18.98;;;10.73;;
26335;SDS011;14047;50.936;4.654;2023-04-24T03:14:13;21.80;;;12.55;;
26335;SDS011;14047;50.936;4.654;2023-04-24T03:16:39;23.27;;;12.80;;
26335;SDS011;14047;50.936;4.654;2023-04-24T03:19:06;27.27;;;12.80;;
26335;SDS011;14047;50.936;4.654;2023-04-24T03:21:36;27.63;;;13.35;;
26335;SDS011;14047;50.936;4.654;2023-04-24T03:24:09;20.80;;;12.50;;
26335;SDS011;14047;50.936;4.654;2023-04-24T03:26:36;26.42;;;13.43;;
26335;SDS011;14047;50.936;4.654;2023-04-24T03:29:24;26.75;;;13.30;;
26335;SDS011;14047;50.936;4.654;2023-04-24T03:31:50;24.95;;;14.10;;
26335;SDS011;14047;50.936;4.654;2023-04-24T03:34:16;21.05;;;12.40;;
26335;SDS011;14047;50.936;4.654;2023-04-24T03:36:43;20.27;;;12.60;;
26335;SDS011;14047;50.936;4.654;2023-04-24T03:39:08;20.67;;;11.02;;
26335;SDS011;14047;50.936;4.654;2023-04-24T03:41:37;18.80;;;10.82;;
26335;SDS011;14047;50.936;4.654;2023-04-24T03:44:10;19.00;;;10.43;;
26335;SDS011;14047;50.936;4.654;2023-04-24T03:46:36;16.17;;;9.20;;
26335;SDS011;14047;50.936;4.654;2023-04-24T03:49:02;15.27;;;8.35;;
26335;SDS011;14047;50.936;4.654;2023-04-24T03:51:32;16.50;;;10.02;;
26335;SDS011;14047;50.936;4.654;2023-04-24T03:54:20;15.68;;;8.55;;
26335;SDS011;14047;50.936;4.654;2023-04-24T03:56:46;17.42;;;9.40;;
26335;SDS011;14047;50.936;4.654;2023-04-24T03:59:12;13.13;;;7.32;;
26335;SDS011;14047;50.936;4.654;2023-04-24T04:01:40;15.20;;;8.38;;
26335;SDS011;14047;50.936;4.654;2023-04-24T04:04:15;14.60;;;8.40;;
26335;SDS011;14047;50.936;4.654;2023-04-24T04:06:42;19.02;;;9.95;;
26335;SDS011;14047;50.936;4.654;2023-04-24T04:09:09;15.38;;;8.55;;
26335;SDS011;14047;50.936;4.654;2023-04-24T04:11:35;17.92;;;8.50;;
26335;SDS011;14047;50.936;4.654;2023-04-24T04:14:02;12.70;;;7.82;;
26335;SDS011;14047;50.936;4.654;2023-04-24T04:16:28;14.70;;;8.15;;
26335;SDS011;14047;50.936;4.654;2023-04-24T04:19:00;15.32;;;8.65;;
26335;SDS011;14047;50.936;4.654;2023-04-24T04:21:28;17.60;;;8.68;;
26335;SDS011;14047;50.936;4.654;2023-04-24T04:24:05;14.05;;;8.52;;
26335;SDS011;14047;50.936;4.654;2023-04-24T04:26:36;13.45;;;8.25;;
26335;SDS011;14047;50.936;4.654;2023-04-24T04:29:05;17.33;;;8.55;;
26335;SDS011;14047;50.936;4.654;2023-04-24T04:31:34;14.70;;;8.63;;
26335;SDS011;14047;50.936;4.654;2023-04-24T04:34:05;10.93;;;6.78;;
26335;SDS011;14047;50.936;4.654;2023-04-24T04:36:33;13.93;;;7.57;;
26335;SDS011;14047;50.936;4.654;2023-04-24T04:39:10;10.70;;;7.22;;
26335;SDS011;14047;50.936;4.654;2023-04-24T04:41:50;11.30;;;6.00;;
26335;SDS011;14047;50.936;4.654;2023-04-24T04:44:18;11.07;;;6.75;;
26335;SDS011;14047;50.936;4.654;2023-04-24T04:46:44;10.85;;;7.03;;
26335;SDS011;14047;50.936;4.654;2023-04-24T04:49:24;10.52;;;6.82;;
26335;SDS011;14047;50.936;4.654;2023-04-24T04:51:51;12.82;;;7.05;;
26335;SDS011;14047;50.936;4.654;2023-04-24T04:54:17;12.27;;;7.40;;
26335;SDS011;14047;50.936;4.654;2023-04-24T04:56:43;13.50;;;7.30;;
26335;SDS011;14047;50.936;4.654;2023-04-24T04:59:09;12.38;;;7.18;;
26335;SDS011;14047;50.936;4.654;2023-04-24T05:01:37;14.30;;;7.03;;
26335;SDS011;14047;50.936;4.654;2023-04-24T05:04:05;11.32;;;7.88;;
26335;SDS011;14047;50.936;4.654;2023-04-24T05:06:31;13.55;;;8.38;;
26335;SDS011;14047;50.936;4.654;2023-04-24T05:08:58;17.02;;;9.35;;
26335;SDS011;14047;50.936;4.654;2023-04-24T05:11:46;16.73;;;10.25;;
26335;SDS011;14047;50.936;4.654;2023-04-24T05:14:13;17.58;;;10.68;;
26335;SDS011;14047;50.936;4.654;2023-04-24T05:16:41;21.10;;;13.27;;
26335;SDS011;14047;50.936;4.654;2023-04-24T05:19:08;23.25;;;13.63;;
26335;SDS011;14047;50.936;4.654;2023-04-24T05:21:38;21.20;;;11.88;;
26335;SDS011;14047;50.936;4.654;2023-04-24T05:24:04;25.30;;;12.98;;
26335;SDS011;14047;50.936;4.654;2023-04-24T05:26:51;22.42;;;12.77;;
26335;SDS011;14047;50.936;4.654;2023-04-24T05:29:22;20.10;;;11.88;;
26335;SDS011;14047;50.936;4.654;2023-04-24T05:31:48;22.73;;;12.15;;
26335;SDS011;14047;50.936;4.654;2023-04-24T05:34:14;20.77;;;11.00;;
26335;SDS011;14047;50.936;4.654;2023-04-24T05:36:43;17.83;;;10.00;;
26335;SDS011;14047;50.936;4.654;2023-04-24T05:39:09;21.02;;;11.88;;
26335;SDS011;14047;50.936;4.654;2023-04-24T05:41:35;21.05;;;11.18;;
26335;SDS011;14047;50.936;4.654;2023-04-24T05:44:01;23.33;;;11.30;;
26335;SDS011;14047;50.936;4.654;2023-04-24T05:46:27;17.38;;;10.75;;
26335;SDS011;14047;50.936;4.654;2023-04-24T05:48:55;27.83;;;11.40;;
26335;SDS011;14047;50.936;4.654;2023-04-24T05:51:20;20.70;;;9.85;;
26335;SDS011;14047;50.936;4.654;2023-04-24T05:53:47;22.42;;;10.80;;
26335;SDS011;14047;50.936;4.654;2023-04-24T05:56:13;20.63;;;11.32;;
26335;SDS011;14047;50.936;4.654;2023-04-24T05:58:39;23.58;;;11.52;;
26335;SDS011;14047;50.936;4.654;2023-04-24T06:01:06;17.27;;;10.50;;
26335;SDS011;14047;50.936;4.654;2023-04-24T06:03:32;25.42;;;11.30;;
26335;SDS011;14047;50.936;4.654;2023-04-24T06:05:58;27.52;;;11.65;;
26335;SDS011;14047;50.936;4.654;2023-04-24T06:08:24;24.67;;;11.57;;
26335;SDS011;14047;50.936;4.654;2023-04-24T06:10:51;22.33;;;11.90;;
26335;SDS011;14047;50.936;4.654;2023-04-24T06:13:21;24.00;;;12.60;;
26335;SDS011;14047;50.936;4.654;2023-04-24T06:16:10;22.38;;;11.52;;
26335;SDS011;14047;50.936;4.654;2023-04-24T06:18:39;27.58;;;12.73;;
26335;SDS011;14047;50.936;4.654;2023-04-24T06:21:05;22.95;;;12.45;;
26335;SDS011;14047;50.936;4.654;2023-04-24T06:23:31;25.80;;;12.07;;
26335;SDS011;14047;50.936;4.654;2023-04-24T06:25:58;26.83;;;13.25;;
26335;SDS011;14047;50.936;4.654;2023-04-24T06:28:24;29.10;;;14.38;;
26335;SDS011;14047;50.936;4.654;2023-04-24T06:30:51;27.92;;;14.25;;
26335;SDS011;14047;50.936;4.654;2023-04-24T06:33:17;27.00;;;12.70;;
26335;SDS011;14047;50.936;4.654;2023-04-24T06:35:43;29.00;;;13.75;;
26335;SDS011;14047;50.936;4.654;2023-04-24T06:38:09;23.67;;;14.32;;
26335;SDS011;14047;50.936;4.654;2023-04-24T06:40:35;28.20;;;14.55;;
26335;SDS011;14047;50.936;4.654;2023-04-24T06:43:01;30.30;;;14.27;;
26335;SDS011;14047;50.936;4.654;2023-04-24T06:45:28;32.67;;;14.82;;
26335;SDS011;14047;50.936;4.654;2023-04-24T06:47:55;29.98;;;13.88;;
26335;SDS011;14047;50.936;4.654;2023-04-24T06:50:21;24.45;;;13.98;;
26335;SDS011;14047;50.936;4.654;2023-04-24T06:52:47;25.95;;;14.20;;
26335;SDS011;14047;50.936;4.654;2023-04-24T06:55:13;24.60;;;14.68;;
26335;SDS011;14047;50.936;4.654;2023-04-24T06:57:41;29.77;;;12.57;;
26335;SDS011;14047;50.936;4.654;2023-04-24T07:00:08;39.20;;;14.82;;
26335;SDS011;14047;50.936;4.654;2023-04-24T07:02:34;27.92;;;14.30;;
26335;SDS011;14047;50.936;4.654;2023-04-24T07:05:00;34.08;;;15.75;;
26335;SDS011;14047;50.936;4.654;2023-04-24T07:07:27;27.45;;;15.80;;
26335;SDS011;14047;50.936;4.654;2023-04-24T07:09:52;31.67;;;16.02;;
26335;SDS011;14047;50.936;4.654;2023-04-24T07:12:19;33.38;;;16.60;;
26335;SDS011;14047;50.936;4.654;2023-04-24T07:14:47;34.33;;;15.40;;
26335;SDS011;14047;50.936;4.654;2023-04-24T07:17:13;31.48;;;16.00;;
26335;SDS011;14047;50.936;4.654;2023-04-24T07:19:39;35.53;;;16.30;;
26335;SDS011;14047;50.936;4.654;2023-04-24T07:22:06;29.70;;;16.50;;
26335;SDS011;14047;50.936;4.654;2023-04-24T07:24:31;31.20;;;15.48;;
26335;SDS011;14047;50.936;4.654;2023-04-24T07:26:58;41.97;;;15.68;;
26335;SDS011;14047;50.936;4.654;2023-04-24T07:29:24;31.35;;;15.48;;
26335;SDS011;14047;50.936;4.654;2023-04-24T07:31:50;31.13;;;14.60;;
26335;SDS011;14047;50.936;4.654;2023-04-24T07:34:16;27.83;;;13.27;;
26335;SDS011;14047;50.936;4.654;2023-04-24T07:36:42;31.25;;;14.20;;
26335;SDS011;14047;50.936;4.654;2023-04-24T07:39:08;30.45;;;13.60;;
26335;SDS011;14047;50.936;4.654;2023-04-24T07:41:34;24.67;;;13.90;;
26335;SDS011;14047;50.936;4.654;2023-04-24T07:44:00;28.05;;;12.30;;
26335;SDS011;14047;50.936;4.654;2023-04-24T07:46:26;31.08;;;12.75;;
26335;SDS011;14047;50.936;4.654;2023-04-24T07:48:55;24.95;;;12.07;;
26335;SDS011;14047;50.936;4.654;2023-04-24T07:51:21;27.63;;;11.05;;
26335;SDS011;14047;50.936;4.654;2023-04-24T07:53:47;26.98;;;8.63;;
26335;SDS011;14047;50.936;4.654;2023-04-24T07:56:13;17.63;;;7.78;;
26335;SDS011;14047;50.936;4.654;2023-04-24T07:58:38;19.98;;;7.93;;
26335;SDS011;14047;50.936;4.654;2023-04-24T08:01:05;20.98;;;8.13;;
26335;SDS011;14047;50.936;4.654;2023-04-24T08:03:31;22.13;;;8.82;;
26335;SDS011;14047;50.936;4.654;2023-04-24T08:05:57;25.38;;;10.32;;
26335;SDS011;14047;50.936;4.654;2023-04-24T08:08:23;26.35;;;11.65;;
26335;SDS011;14047;50.936;4.654;2023-04-24T08:10:49;25.63;;;13.25;;
26335;SDS011;14047;50.936;4.654;2023-04-24T08:13:15;29.65;;;14.20;;
26335;SDS011;14047;50.936;4.654;2023-04-24T08:15:41;28.67;;;15.48;;
26335;SDS011;14047;50.936;4.654;2023-04-24T08:18:07;28.42;;;13.88;;
26335;SDS011;14047;50.936;4.654;2023-04-24T08:20:33;23.65;;;10.73;;
26335;SDS011;14047;50.936;4.654;2023-04-24T08:22:59;20.33;;;10.88;;
26335;SDS011;14047;50.936;4.654;2023-04-24T08:25:25;23.83;;;10.55;;
26335;SDS011;14047;50.936;4.654;2023-04-24T08:27:51;24.23;;;10.02;;
26335;SDS011;14047;50.936;4.654;2023-04-24T08:30:17;20.73;;;8.45;;
26335;SDS011;14047;50.936;4.654;2023-04-24T08:32:44;19.02;;;7.50;;
26335;SDS011;14047;50.936;4.654;2023-04-24T08:35:10;18.58;;;7.60;;
26335;SDS011;14047;50.936;4.654;2023-04-24T08:37:36;19.95;;;6.43;;
26335;SDS011;14047;50.936;4.654;2023-04-24T08:40:06;11.25;;;6.63;;
26335;SDS011;14047;50.936;4.654;2023-04-24T08:42:43;21.92;;;6.63;;
26335;SDS011;14047;50.936;4.654;2023-04-24T08:45:10;15.27;;;6.53;;
26335;SDS011;14047;50.936;4.654;2023-04-24T08:47:38;18.02;;;7.93;;
26335;SDS011;14047;50.936;4.654;2023-04-24T08:50:06;20.67;;;7.07;;
26335;SDS011;14047;50.936;4.654;2023-04-24T08:52:33;17.38;;;6.75;;
26335;SDS011;14047;50.936;4.654;2023-04-24T08:55:00;19.00;;;6.93;;
26335;SDS011;14047;50.936;4.654;2023-04-24T08:57:26;13.32;;;6.50;;
26335;SDS011;14047;50.936;4.654;2023-04-24T08:59:53;17.05;;;6.80;;
26335;SDS011;14047;50.936;4.654;2023-04-24T09:02:20;19.05;;;7.43;;
26335;SDS011;14047;50.936;4.654;2023-04-24T09:04:46;19.95;;;6.68;;
26335;SDS011;14047;50.936;4.654;2023-04-24T09:07:14;14.13;;;6.20;;
26335;SDS011;14047;50.936;4.654;2023-04-24T09:09:42;21.27;;;6.68;;
26335;SDS011;14047;50.936;4.654;2023-04-24T09:12:09;13.13;;;6.28;;
26335;SDS011;14047;50.936;4.654;2023-04-24T09:14:36;27.67;;;7.38;;
26335;SDS011;14047;50.936;4.654;2023-04-24T09:17:05;11.77;;;5.32;;
26335;SDS011;14047;50.936;4.654;2023-04-24T09:19:31;18.02;;;6.93;;
26335;SDS011;14047;50.936;4.654;2023-04-24T09:21:57;24.92;;;7.95;;
26335;SDS011;14047;50.936;4.654;2023-04-24T09:24:23;16.88;;;6.88;;
26335;SDS011;14047;50.936;4.654;2023-04-24T09:26:55;19.90;;;8.48;;
26335;SDS011;14047;50.936;4.654;2023-04-24T09:29:23;17.60;;;8.20;;
26335;SDS011;14047;50.936;4.654;2023-04-24T09:31:50;24.35;;;10.10;;
26335;SDS011;14047;50.936;4.654;2023-04-24T09:34:20;20.15;;;7.70;;
26335;SDS011;14047;50.936;4.654;2023-04-24T09:36:48;17.15;;;7.45;;
26335;SDS011;14047;50.936;4.654;2023-04-24T09:39:15;18.30;;;6.80;;
26335;SDS011;14047;50.936;4.654;2023-04-24T09:41:52;19.27;;;6.50;;
26335;SDS011;14047;50.936;4.654;2023-04-24T09:44:26;19.42;;;7.50;;
26335;SDS011;14047;50.936;4.654;2023-04-24T09:46:54;17.58;;;6.32;;
26335;SDS011;14047;50.936;4.654;2023-04-24T09:49:27;18.52;;;5.57;;
26335;SDS011;14047;50.936;4.654;2023-04-24T09:54:31;12.10;;;5.63;;
26335;SDS011;14047;50.936;4.654;2023-04-24T09:56:57;15.27;;;5.65;;
26335;SDS011;14047;50.936;4.654;2023-04-24T09:59:25;14.10;;;4.72;;
26335;SDS011;14047;50.936;4.654;2023-04-24T10:01:51;12.02;;;4.60;;
26335;SDS011;14047;50.936;4.654;2023-04-24T10:04:24;13.20;;;4.40;;
26335;SDS011;14047;50.936;4.654;2023-04-24T10:06:52;10.38;;;4.32;;
26335;SDS011;14047;50.936;4.654;2023-04-24T10:09:24;11.40;;;3.70;;
26335;SDS011;14047;50.936;4.654;2023-04-24T10:11:51;14.63;;;3.95;;
26335;SDS011;14047;50.936;4.654;2023-04-24T10:14:19;10.50;;;3.53;;
26335;SDS011;14047;50.936;4.654;2023-04-24T10:16:46;6.28;;;2.85;;
26335;SDS011;14047;50.936;4.654;2023-04-24T10:19:13;7.50;;;3.50;;
26335;SDS011;14047;50.936;4.654;2023-04-24T10:21:40;13.00;;;3.25;;
26335;SDS011;14047;50.936;4.654;2023-04-24T10:24:20;12.25;;;3.53;;
26335;SDS011;14047;50.936;4.654;2023-04-24T10:26:46;7.38;;;3.50;;
26335;SDS011;14047;50.936;4.654;2023-04-24T10:29:14;13.98;;;3.65;;
26335;SDS011;14047;50.936;4.654;2023-04-24T10:31:42;19.27;;;3.88;;
26335;SDS011;14047;50.936;4.654;2023-04-24T10:34:12;10.88;;;4.00;;
26335;SDS011;14047;50.936;4.654;2023-04-24T10:36:40;11.15;;;4.35;;
26335;SDS011;14047;50.936;4.654;2023-04-24T10:39:10;10.20;;;4.43;;
26335;SDS011;14047;50.936;4.654;2023-04-24T10:41:39;9.68;;;3.90;;
26335;SDS011;14047;50.936;4.654;2023-04-24T10:46:35;13.90;;;3.90;;
26335;SDS011;14047;50.936;4.654;2023-04-24T10:49:05;9.05;;;3.55;;
26335;SDS011;14047;50.936;4.654;2023-04-24T10:51:46;8.93;;;3.20;;
26335;SDS011;14047;50.936;4.654;2023-04-24T10:59:44;6.28;;;3.28;;
26335;SDS011;14047;50.936;4.654;2023-04-24T11:02:13;9.23;;;3.25;;
26335;SDS011;14047;50.936;4.654;2023-04-24T11:04:42;7.80;;;3.17;;
26335;SDS011;14047;50.936;4.654;2023-04-24T11:07:10;7.22;;;3.53;;
26335;SDS011;14047;50.936;4.654;2023-04-24T11:09:36;8.70;;;3.35;;
26335;SDS011;14047;50.936;4.654;2023-04-24T11:12:03;10.05;;;3.70;;
26335;SDS011;14047;50.936;4.654;2023-04-24T11:15:01;13.38;;;3.58;;
26335;SDS011;14047;50.936;4.654;2023-04-24T11:20:04;11.88;;;3.70;;
26335;SDS011;14047;50.936;4.654;2023-04-24T11:22:35;12.50;;;3.50;;
26335;SDS011;14047;50.936;4.654;2023-04-24T11:25:02;9.45;;;3.70;;
26335;SDS011;14047;50.936;4.654;2023-04-24T11:27:32;7.32;;;4.00;;
26335;SDS011;14047;50.936;4.654;2023-04-24T11:30:08;9.88;;;3.72;;
26335;SDS011;14047;50.936;4.654;2023-04-24T11:32:39;10.48;;;3.60;;
26335;SDS011;14047;50.936;4.654;2023-04-24T11:37:35;5.15;;;3.22;;
26335;SDS011;14047;50.936;4.654;2023-04-24T11:40:06;6.32;;;3.13;;
26335;SDS011;14047;50.936;4.654;2023-04-24T11:42:34;8.52;;;3.17;;
26335;SDS011;14047;50.936;4.654;2023-04-24T11:45:08;8.18;;;3.17;;
26335;SDS011;14047;50.936;4.654;2023-04-24T11:47:35;8.23;;;4.07;;
26335;SDS011;14047;50.936;4.654;2023-04-24T11:50:03;7.60;;;3.80;;
26335;SDS011;14047;50.936;4.654;2023-04-24T11:52:30;9.77;;;3.63;;
26335;SDS011;14047;50.936;4.654;2023-04-24T11:54:56;5.68;;;3.40;;
26335;SDS011;14047;50.936;4.654;2023-04-24T11:57:23;8.40;;;3.50;;
26335;SDS011;14047;50.936;4.654;2023-04-24T11:59:53;10.98;;;3.80;;
26335;SDS011;14047;50.936;4.654;2023-04-24T12:02:23;9.50;;;4.47;;
26335;SDS011;14047;50.936;4.654;2023-04-24T12:04:50;11.88;;;4.03;;
26335;SDS011;14047;50.936;4.654;2023-04-24T12:07:17;10.95;;;3.50;;
26335;SDS011;14047;50.936;4.654;2023-04-24T12:09:44;8.93;;;3.78;;
26335;SDS011;14047;50.936;4.654;2023-04-24T12:12:16;8.25;;;3.70;;
26335;SDS011;14047;50.936;4.654;2023-04-24T12:17:15;6.88;;;3.45;;
26335;SDS011;14047;50.936;4.654;2023-04-24T12:19:45;7.55;;;4.32;;
26335;SDS011;14047;50.936;4.654;2023-04-24T12:22:13;5.70;;;3.35;;
26335;SDS011;14047;50.936;4.654;2023-04-24T12:24:58;8.85;;;3.38;;
26335;SDS011;14047;50.936;4.654;2023-04-24T12:27:28;9.18;;;3.97;;
26335;SDS011;14047;50.936;4.654;2023-04-24T12:29:55;8.75;;;4.13;;
26335;SDS011;14047;50.936;4.654;2023-04-24T12:32:22;13.82;;;4.15;;
26335;SDS011;14047;50.936;4.654;2023-04-24T12:34:49;7.47;;;4.45;;
26335;SDS011;14047;50.936;4.654;2023-04-24T12:37:16;9.93;;;3.65;;
26335;SDS011;14047;50.936;4.654;2023-04-24T12:42:34;10.30;;;4.32;;
26335;SDS011;14047;50.936;4.654;2023-04-24T12:45:10;7.05;;;3.17;;
26335;SDS011;14047;50.936;4.654;2023-04-24T12:47:37;9.52;;;4.10;;
26335;SDS011;14047;50.936;4.654;2023-04-24T12:50:04;9.05;;;3.80;;
26335;SDS011;14047;50.936;4.654;2023-04-24T12:52:31;7.60;;;3.90;;
26335;SDS011;14047;50.936;4.654;2023-04-24T12:54:58;7.35;;;4.78;;
26335;SDS011;14047;50.936;4.654;2023-04-24T12:57:26;7.63;;;3.90;;
26335;SDS011;14047;50.936;4.654;2023-04-24T12:59:54;7.40;;;3.47;;
26335;SDS011;14047;50.936;4.654;2023-04-24T13:02:27;8.60;;;3.50;;
26335;SDS011;14047;50.936;4.654;2023-04-24T13:04:55;8.80;;;3.95;;
26335;SDS011;14047;50.936;4.654;2023-04-24T13:07:21;8.57;;;3.70;;
26335;SDS011;14047;50.936;4.654;2023-04-24T13:09:48;9.18;;;3.65;;
26335;SDS011;14047;50.936;4.654;2023-04-24T13:12:16;6.47;;;2.92;;
26335;SDS011;14047;50.936;4.654;2023-04-24T13:14:42;6.10;;;3.30;;
26335;SDS011;14047;50.936;4.654;2023-04-24T13:17:08;8.75;;;2.97;;
26335;SDS011;14047;50.936;4.654;2023-04-24T13:19:39;4.05;;;2.70;;
26335;SDS011;14047;50.936;4.654;2023-04-24T13:22:06;10.18;;;3.40;;
26335;SDS011;14047;50.936;4.654;2023-04-24T13:24:34;8.02;;;3.55;;
26335;SDS011;14047;50.936;4.654;2023-04-24T13:27:00;7.38;;;2.72;;
26335;SDS011;14047;50.936;4.654;2023-04-24T13:29:26;5.88;;;3.10;;
26335;SDS011;14047;50.936;4.654;2023-04-24T13:31:53;7.57;;;3.15;;
26335;SDS011;14047;50.936;4.654;2023-04-24T13:34:23;7.20;;;3.38;;
26335;SDS011;14047;50.936;4.654;2023-04-24T13:36:50;6.82;;;3.03;;
26335;SDS011;14047;50.936;4.654;2023-04-24T13:39:18;6.68;;;3.65;;
26335;SDS011;14047;50.936;4.654;2023-04-24T13:41:43;6.53;;;3.15;;
26335;SDS011;14047;50.936;4.654;2023-04-24T13:44:10;9.73;;;4.22;;
26335;SDS011;14047;50.936;4.654;2023-04-24T13:46:36;11.77;;;4.00;;
26335;SDS011;14047;50.936;4.654;2023-04-24T13:49:02;8.98;;;2.92;;
26335;SDS011;14047;50.936;4.654;2023-04-24T13:51:28;7.13;;;3.17;;
26335;SDS011;14047;50.936;4.654;2023-04-24T13:53:54;7.13;;;3.33;;
26335;SDS011;14047;50.936;4.654;2023-04-24T13:56:21;5.82;;;2.70;;
26335;SDS011;14047;50.936;4.654;2023-04-24T13:58:47;7.53;;;2.33;;
26335;SDS011;14047;50.936;4.654;2023-04-24T14:01:14;9.45;;;2.90;;
26335;SDS011;14047;50.936;4.654;2023-04-24T14:03:41;5.90;;;2.33;;
26335;SDS011;14047;50.936;4.654;2023-04-24T14:06:08;7.03;;;2.33;;
26335;SDS011;14047;50.936;4.654;2023-04-24T14:08:34;9.50;;;2.67;;
26335;SDS011;14047;50.936;4.654;2023-04-24T14:11:00;6.72;;;1.77;;
26335;SDS011;14047;50.936;4.654;2023-04-24T14:13:26;4.20;;;1.98;;
26335;SDS011;14047;50.936;4.654;2023-04-24T14:15:53;9.38;;;3.08;;
26335;SDS011;14047;50.936;4.654;2023-04-24T14:18:18;6.60;;;2.08;;
26335;SDS011;14047;50.936;4.654;2023-04-24T14:20:45;7.75;;;2.30;;
26335;SDS011;14047;50.936;4.654;2023-04-24T14:23:11;7.03;;;2.33;;
26335;SDS011;14047;50.936;4.654;2023-04-24T14:25:37;4.80;;;2.20;;
26335;SDS011;14047;50.936;4.654;2023-04-24T14:28:03;3.85;;;1.73;;
26335;SDS011;14047;50.936;4.654;2023-04-24T14:30:29;4.72;;;1.70;;
26335;SDS011;14047;50.936;4.654;2023-04-24T14:32:54;6.15;;;2.40;;
26335;SDS011;14047;50.936;4.654;2023-04-24T14:35:21;5.47;;;2.95;;
26335;SDS011;14047;50.936;4.654;2023-04-24T14:37:47;4.40;;;2.35;;
26335;SDS011;14047;50.936;4.654;2023-04-24T14:40:14;6.32;;;2.17;;
26335;SDS011;14047;50.936;4.654;2023-04-24T14:42:40;5.20;;;2.15;;
26335;SDS011;14047;50.936;4.654;2023-04-24T14:45:06;7.15;;;2.30;;
26335;SDS011;14047;50.936;4.654;2023-04-24T14:47:33;4.65;;;2.35;;
26335;SDS011;14047;50.936;4.654;2023-04-24T14:49:59;6.18;;;2.50;;
26335;SDS011;14047;50.936;4.654;2023-04-24T14:52:25;6.25;;;2.60;;
26335;SDS011;14047;50.936;4.654;2023-04-24T14:54:51;6.30;;;2.50;;